Time;durP1;ratioP1;P1;durP2;ratioP2;P2;SDS_P1;SDS_P2;PMS_P1;PMS_P2;Temp;Humidity;BMP_temperature;BMP_pressure;BME280_temperature;BME280_humidity;BME280_pressure;Samples;Min_cycle;Max_cycle;Signal;HPM_P1;HPM_P2
2022/05/13 05:58:35;;;;;;;8.65;5.65;;;;;;;18.35;78.84;97022.03;6247761;23;19937;-82
2022/05/13 06:01:05;;;;;;;9.07;7.38;;;;;;;18.34;78.16;97023.84;6255193;23;20030;-84
2022/05/13 06:03:31;;;;;;;7.57;6.45;;;;;;;18.34;78.41;97015.94;6272596;22;20075;-74
2022/05/13 06:06:01;;;;;;;7.53;5.25;;;;;;;18.34;78.47;97026.50;6274321;22;20120;-74
2022/05/13 06:08:28;;;;;;;8.35;5.00;;;;;;;18.36;77.90;97024.44;6274806;22;20408;-74
2022/05/13 06:10:56;;;;;;;5.82;3.78;;;;;;;18.33;75.47;97014.31;6276988;22;20019;-72
2022/05/13 06:13:23;;;;;;;8.50;5.35;;;;;;;18.31;76.48;97025.09;6247235;22;20020;-72
2022/05/13 06:15:54;;;;;;;10.23;5.20;;;;;;;18.36;78.86;97028.91;6244072;22;20475;-76
2022/05/13 06:18:24;;;;;;;8.77;4.35;;;;;;;18.38;78.89;97022.38;6247541;23;20026;-75
2022/05/13 06:20:52;;;;;;;6.18;4.45;;;;;;;18.39;78.84;97021.38;6245509;23;20020;-77
2022/05/13 06:23:19;;;;;;;8.15;4.18;;;;;;;18.42;77.76;97028.03;6244943;22;20023;-77
2022/05/13 06:25:47;;;;;;;6.22;3.80;;;;;;;18.43;78.37;97038.41;6243661;22;20034;-75
2022/05/13 06:28:14;;;;;;;4.95;3.78;;;;;;;18.42;76.74;97034.13;6245015;23;20024;-75
2022/05/13 06:30:42;;;;;;;6.63;3.45;;;;;;;18.41;76.65;97040.44;6245168;23;20107;-76
2022/05/13 06:33:11;;;;;;;6.20;4.40;;;;;;;18.42;77.42;97042.06;6244783;22;20095;-75
2022/05/13 06:35:39;;;;;;;5.57;4.05;;;;;;;18.42;77.94;97031.47;6244772;23;20062;-75
2022/05/13 06:38:08;;;;;;;3.85;3.47;;;;;;;18.40;75.44;97025.63;6244014;23;20020;-73
2022/05/13 06:40:35;;;;;;;5.32;3.90;;;;;;;18.40;76.93;97036.19;6245191;23;20026;-75
2022/05/13 06:43:04;;;;;;;6.75;4.00;;;;;;;18.41;77.17;97036.97;6244761;22;20016;-75
2022/05/13 06:45:32;;;;;;;4.88;3.45;;;;;;;18.39;74.88;97037.22;6243799;23;20020;-75
2022/05/13 06:48:00;;;;;;;5.68;4.22;;;;;;;18.40;76.26;97038.81;6243875;22;20032;-72
2022/05/13 06:50:29;;;;;;;4.63;3.85;;;;;;;18.41;75.25;97034.34;6256331;23;20053;-73
2022/05/13 06:52:56;;;;;;;6.65;3.65;;;;;;;18.43;74.85;97027.84;6264234;22;20054;-76
2022/05/13 06:55:28;;;;;;;5.40;4.10;;;;;;;18.49;77.96;97029.56;6266250;23;20081;-77
2022/05/13 06:57:55;;;;;;;6.32;3.70;;;;;;;18.51;77.32;97021.44;6264918;23;20047;-77
2022/05/13 07:00:23;;;;;;;7.35;4.57;;;;;;;18.56;78.29;97028.69;6258356;22;20526;-77
2022/05/13 07:02:51;;;;;;;8.77;4.05;;;;;;;18.59;76.41;97028.25;6253838;22;20460;-76
2022/05/13 07:05:20;;;;;;;8.85;4.28;;;;;;;18.63;76.98;97032.88;6248858;22;20020;-77
2022/05/13 07:07:49;;;;;;;6.45;4.68;;;;;;;18.65;74.24;97043.19;6248582;22;20016;-77
2022/05/13 07:10:17;;;;;;;5.10;3.95;;;;;;;18.67;75.12;97041.97;6249667;22;20024;-77
2022/05/13 07:12:44;;;;;;;5.65;3.90;;;;;;;18.72;75.82;97038.66;6249301;22;20024;-77
2022/05/13 07:15:15;;;;;;;6.70;3.50;;;;;;;18.72;72.59;97046.59;6252412;22;20352;-77
2022/05/13 07:17:44;;;;;;;6.93;4.80;;;;;;;18.73;72.78;97040.25;6249230;23;20096;-77
2022/05/13 07:20:14;;;;;;;5.63;3.38;;;;;;;18.71;71.75;97043.13;6247375;22;20055;-77
2022/05/13 07:22:43;;;;;;;4.60;3.80;;;;;;;18.77;74.46;97052.00;6245408;22;20020;-77
2022/05/13 07:25:12;;;;;;;5.78;3.50;;;;;;;18.77;71.69;97057.28;6246943;23;20412;-77
2022/05/13 07:27:40;;;;;;;5.50;3.60;;;;;;;18.79;72.40;97060.53;6250121;22;20026;-77
2022/05/13 07:30:09;;;;;;;4.72;3.47;;;;;;;18.84;72.11;97065.16;6247930;23;20408;-77
2022/05/13 07:32:37;;;;;;;4.10;3.70;;;;;;;18.86;74.44;97061.25;6256122;22;20024;-77
2022/05/13 07:35:08;;;;;;;4.55;3.50;;;;;;;18.89;73.44;97063.47;6250833;22;20035;-77
2022/05/13 07:37:36;;;;;;;4.80;3.60;;;;;;;18.92;74.05;97062.22;6251398;23;20016;-77
2022/05/13 07:42:52;;;;;;;6.90;4.15;;;;;;;18.93;73.04;97062.00;6249313;22;20403;-77
2022/05/13 07:45:20;;;;;;;4.55;3.35;;;;;;;18.92;72.44;97055.09;6249392;22;20106;-77
2022/05/13 07:47:48;;;;;;;6.88;4.15;;;;;;;18.92;73.29;97065.66;6248712;22;20105;-76
2022/05/13 07:50:16;;;;;;;5.97;4.45;;;;;;;18.94;71.27;97062.81;6249119;22;20020;-77
2022/05/13 07:52:43;;;;;;;9.20;5.38;;;;;;;18.92;71.23;97063.03;6247949;22;20098;-77
2022/05/13 07:55:15;;;;;;;10.32;6.38;;;;;;;18.92;69.90;97064.88;6248161;22;20111;-78
2022/05/13 07:57:44;;;;;;;6.53;5.38;;;;;;;18.94;71.97;97063.59;6246831;23;20019;-77
2022/05/13 08:00:25;;;;;;;10.30;5.70;;;;;;;18.97;73.08;97072.91;6247301;23;20099;-76
2022/05/13 08:02:54;;;;;;;10.77;6.90;;;;;;;19.02;73.43;97074.88;6246695;22;20099;-77
2022/05/13 08:05:22;;;;;;;8.18;5.28;;;;;;;19.02;73.63;97073.06;6247975;23;20075;-77
2022/05/13 08:07:57;;;;;;;6.55;4.45;;;;;;;19.01;71.48;97074.09;6246000;23;20023;-77
2022/05/13 08:10:25;;;;;;;6.50;4.93;;;;;;;19.01;71.72;97081.22;6246649;23;20016;-78
2022/05/13 08:12:53;;;;;;;8.25;4.43;;;;;;;19.00;72.16;97082.25;6248110;22;20059;-76
2022/05/13 08:15:22;;;;;;;11.13;4.97;;;;;;;18.96;72.47;97083.72;6250974;23;20024;-77
2022/05/13 08:17:50;;;;;;;8.80;5.55;;;;;;;18.94;72.10;97090.03;6245799;23;20567;-77
2022/05/13 08:20:18;;;;;;;6.07;4.18;;;;;;;18.94;71.77;97092.69;6255119;22;20020;-77
2022/05/13 08:22:46;;;;;;;7.22;5.05;;;;;;;18.96;71.75;97102.22;6262332;22;20541;-77
2022/05/13 08:25:14;;;;;;;7.95;4.28;;;;;;;18.91;69.46;97095.78;6263258;22;20037;-77
2022/05/13 08:27:42;;;;;;;6.30;4.68;;;;;;;18.89;71.06;97097.00;6260287;23;20048;-77
2022/05/13 08:30:11;;;;;;;6.82;5.68;;;;;;;18.89;72.12;97097.00;6254675;23;20054;-77
2022/05/13 08:32:41;;;;;;;7.28;4.72;;;;;;;18.88;72.41;97100.69;6259254;22;20015;-77
2022/05/13 08:35:10;;;;;;;6.38;4.65;;;;;;;18.88;71.72;97104.13;6256463;23;20491;-76
2022/05/13 08:37:47;;;;;;;8.13;5.22;;;;;;;18.89;74.21;97103.13;6261913;23;20028;-77
2022/05/13 08:40:23;;;;;;;5.93;4.78;;;;;;;18.89;74.39;97112.88;6257331;23;20471;-77
2022/05/13 08:42:51;;;;;;;5.47;4.93;;;;;;;18.88;74.05;97103.34;6256558;22;20024;-77
2022/05/13 08:45:20;;;;;;;5.38;4.88;;;;;;;18.89;74.25;97097.00;6251147;22;20024;-77
2022/05/13 08:47:54;;;;;;;5.10;4.60;;;;;;;18.88;71.49;97106.78;6258774;22;20004;-77
2022/05/13 08:50:27;;;;;;;6.40;5.30;;;;;;;18.90;74.02;97106.56;6255651;23;20020;-77
2022/05/13 08:53:10;;;;;;;10.70;5.05;;;;;;;18.88;69.86;97111.28;6257790;22;20035;-77
2022/05/13 08:55:42;;;;;;;6.93;5.18;;;;;;;18.91;73.61;97101.06;6257308;23;20028;-76
2022/05/13 08:58:16;;;;;;;7.38;5.43;;;;;;;18.98;74.18;97089.59;6246885;23;20384;-77
2022/05/13 09:00:47;;;;;;;9.15;4.85;;;;;;;19.01;70.78;97097.09;6247690;23;20088;-76
2022/05/13 09:03:27;;;;;;;6.70;4.40;;;;;;;19.07;70.73;97097.00;6247146;22;20016;-77
2022/05/13 09:08:54;;;;;;;7.35;5.07;;;;;;;19.27;73.15;97088.78;6284499;22;20008;-79
2022/05/13 09:11:29;;;;;;;6.28;4.72;;;;;;;19.34;71.06;97092.13;6281435;22;20026;-78
2022/05/13 09:14:08;;;;;;;6.10;4.60;;;;;;;19.42;72.42;97090.22;6256115;23;20024;-78
2022/05/13 09:16:49;;;;;;;7.30;5.35;;;;;;;19.49;71.41;97094.38;6248419;23;20095;-78
2022/05/13 09:19:27;;;;;;;9.88;4.03;;;;;;;19.54;69.62;97098.97;6252984;23;20031;-78
2022/05/13 09:21:55;;;;;;;8.77;4.45;;;;;;;19.58;68.99;97094.84;6252182;22;20071;-78
2022/05/13 09:24:22;;;;;;;6.65;3.72;;;;;;;19.59;66.82;97096.47;6250906;22;20047;-78
2022/05/13 09:26:51;;;;;;;6.47;4.20;;;;;;;19.61;68.31;97099.69;6254279;22;20044;-78
2022/05/13 09:29:20;;;;;;;7.00;4.03;;;;;;;19.60;67.76;97103.38;6254994;22;20043;-79
2022/05/13 09:32:01;;;;;;;16.08;7.32;;;;;;;19.56;63.69;97102.22;6259083;22;20023;-79
2022/05/13 09:34:35;;;;;;;8.30;4.70;;;;;;;19.56;66.88;97105.66;6255769;23;20038;-77
2022/05/13 09:37:07;;;;;;;7.10;3.92;;;;;;;19.55;63.69;97100.63;6252302;23;20016;-79
2022/05/13 09:39:38;;;;;;;5.68;3.78;;;;;;;19.54;65.01;97094.50;6258621;23;20008;-78
2022/05/13 09:42:20;;;;;;;6.40;3.22;;;;;;;19.54;64.24;97106.94;6259703;22;20016;-78
2022/05/13 09:44:51;;;;;;;5.65;3.65;;;;;;;19.51;64.02;97110.03;6254460;23;20024;-78
2022/05/13 09:47:27;;;;;;;9.27;5.70;;;;;;;19.49;65.18;97106.81;6256819;23;20016;-78
2022/05/13 09:50:22;;;;;;;10.38;5.15;;;;;;;19.47;64.14;97098.28;6252186;23;20026;-78
2022/05/13 09:52:51;;;;;;;6.38;4.90;;;;;;;19.47;66.09;97090.34;6258288;22;20063;-78
2022/05/13 09:55:26;;;;;;;6.47;4.15;;;;;;;19.49;66.04;97094.38;6250483;22;20020;-78
2022/05/13 09:57:54;;;;;;;13.20;6.80;;;;;;;19.51;65.70;97096.81;6248906;23;20026;-78
2022/05/13 10:00:25;;;;;;;8.95;5.47;;;;;;;19.50;65.04;97089.88;6250807;22;20031;-78
2022/05/13 10:03:08;;;;;;;11.50;5.45;;;;;;;19.50;63.18;97095.19;6251109;22;20047;-78
2022/05/13 10:05:38;;;;;;;8.48;4.25;;;;;;;19.52;67.17;97085.16;6257889;23;20031;-78
2022/05/13 10:08:09;;;;;;;8.25;4.10;;;;;;;19.54;66.68;97088.41;6254190;22;20072;-78
2022/05/13 10:16:17;;;;;;;5.78;3.53;;;;;;;19.60;65.42;97087.50;6251773;23;20539;-78
2022/05/13 10:18:51;;;;;;;6.85;3.30;;;;;;;19.58;60.91;97089.56;6251462;23;20023;-78
2022/05/13 10:21:26;;;;;;;7.07;3.45;;;;;;;19.57;64.31;97090.63;6251787;22;20016;-78
2022/05/13 10:23:58;;;;;;;7.07;3.40;;;;;;;19.55;63.60;97085.53;6247767;23;20063;-73
2022/05/13 10:26:31;;;;;;;8.85;4.97;;;;;;;19.56;65.58;97091.63;6243270;23;20035;-74
2022/05/13 10:29:07;;;;;;;8.93;4.82;;;;;;;19.56;62.29;97092.44;6243907;23;20506;-75
2022/05/13 10:31:39;;;;;;;8.23;4.50;;;;;;;19.58;64.44;97094.84;6244179;22;20464;-73
2022/05/13 10:34:15;;;;;;;6.20;3.20;;;;;;;19.56;59.92;97096.91;6249451;23;20024;-78
2022/05/13 10:36:50;;;;;;;8.75;2.90;;;;;;;19.52;58.10;97095.75;6254074;22;20044;-78
2022/05/13 10:39:23;;;;;;;4.38;2.63;;;;;;;19.51;60.95;97094.97;6271400;22;20047;-78
2022/05/13 10:41:57;;;;;;;6.00;3.00;;;;;;;19.50;59.10;97093.34;6255557;22;20454;-77
2022/05/13 10:44:34;;;;;;;10.43;3.63;;;;;;;19.47;60.92;97095.63;6246212;23;20044;-77
2022/05/13 10:47:08;;;;;;;6.38;4.03;;;;;;;19.45;60.67;97097.69;6244282;23;20039;-78
2022/05/13 10:49:39;;;;;;;7.75;3.30;;;;;;;19.41;60.93;97101.81;6254973;23;20016;-78
2022/05/13 10:52:18;;;;;;;5.78;3.30;;;;;;;19.40;61.87;97092.28;6267301;22;20024;-78
2022/05/13 10:54:52;;;;;;;9.70;3.85;;;;;;;19.38;60.76;97084.56;6271824;22;20012;-78
2022/05/13 10:57:34;;;;;;;10.68;4.80;;;;;;;19.45;58.82;97098.50;6269109;22;20028;-78
2022/05/13 11:00:11;;;;;;;14.82;5.50;;;;;;;19.50;61.05;97089.88;6267267;23;20072;-77
2022/05/13 11:03:07;;;;;;;9.45;4.43;;;;;;;19.54;61.88;97104.28;6272241;22;20467;-77
2022/05/13 11:05:46;;;;;;;4.97;2.78;;;;;;;19.53;57.74;97086.81;6275095;22;20060;-79
2022/05/13 11:08:23;;;;;;;10.82;3.20;;;;;;;19.52;58.76;97093.13;6274033;22;20020;-78
2022/05/13 11:11:02;;;;;;;5.68;3.58;;;;;;;19.55;59.49;97100.63;6275327;22;20042;-77
2022/05/13 11:13:46;;;;;;;7.30;4.00;;;;;;;19.56;60.65;97110.16;6267648;22;20051;-78
2022/05/13 11:16:20;;;;;;;12.23;5.40;;;;;;;19.56;59.17;97104.84;6256676;23;20434;-78
2022/05/13 11:18:59;;;;;;;9.32;4.00;;;;;;;19.55;60.55;97100.63;6267165;23;20047;-78
2022/05/13 11:21:37;;;;;;;8.20;4.60;;;;;;;19.54;58.88;97110.38;6267527;22;20059;-78
2022/05/13 11:27:14;;;;;;;15.13;7.28;;;;;;;19.53;58.52;97102.69;6272002;22;20072;-78
2022/05/13 11:29:47;;;;;;;9.27;4.32;;;;;;;19.58;59.72;97100.16;6258564;23;20044;-78
2022/05/13 11:32:25;;;;;;;7.82;3.80;;;;;;;19.64;58.59;97098.44;6265322;22;20115;-78
2022/05/13 11:35:07;;;;;;;8.73;5.32;;;;;;;19.69;57.27;97095.91;6267662;22;20064;-78
2022/05/13 11:37:39;;;;;;;8.50;3.78;;;;;;;19.72;56.35;97104.25;6261243;23;20024;-79
2022/05/13 11:40:19;;;;;;;7.68;4.15;;;;;;;19.76;58.07;97102.72;6263335;22;20020;-78
2022/05/13 11:45:59;;;;;;;4.50;3.63;;;;;;;19.78;60.27;97102.50;6267054;23;20024;-78
2022/05/13 11:48:30;;;;;;;9.45;4.45;;;;;;;19.75;58.17;97100.34;6267852;22;20011;-78
2022/05/13 11:51:04;;;;;;;14.02;6.18;;;;;;;19.76;56.66;97097.44;6265468;23;20048;-78
2022/05/13 11:53:50;;;;;;;18.60;9.32;;;;;;;19.83;58.80;97096.53;6263020;22;20016;-79
2022/05/13 11:56:31;;;;;;;7.20;4.10;;;;;;;19.88;56.88;97094.81;6266072;23;20017;-78
2022/05/13 11:59:02;;;;;;;11.10;5.13;;;;;;;19.93;57.42;97094.13;6261375;23;20217;-78
2022/05/13 12:02:07;;;;;;;8.45;4.70;;;;;;;20.00;57.32;97101.97;6261647;22;20019;-84
2022/05/13 12:05:03;;;;;;;7.18;3.60;;;;;;;20.06;56.89;97087.81;6253329;23;20026;-79
2022/05/13 12:07:33;;;;;;;10.65;3.90;;;;;;;20.10;55.95;97097.72;6252087;22;20103;-80
2022/05/13 12:10:06;;;;;;;7.07;3.63;;;;;;;20.12;57.39;97093.00;6252988;22;20020;-81
2022/05/13 12:12:50;;;;;;;11.40;4.93;;;;;;;20.10;56.64;97092.41;6237675;23;20048;-79
2022/05/13 12:15:39;;;;;;;17.17;8.57;;;;;;;20.10;56.40;97081.81;6220328;23;20476;-78
2022/05/13 12:18:17;;;;;;;10.50;6.20;;;;;;;20.14;58.30;97090.91;6221482;23;20051;-78
2022/05/13 12:20:51;;;;;;;11.73;4.40;;;;;;;20.16;55.94;97082.75;6223766;23;20012;-81
2022/05/13 12:23:25;;;;;;;11.80;3.65;;;;;;;20.20;55.35;97083.09;6222985;23;20016;-79
2022/05/13 12:25:57;;;;;;;4.32;3.35;;;;;;;20.28;54.65;97085.38;6221854;23;20334;-78
2022/05/13 12:28:32;;;;;;;5.45;3.05;;;;;;;20.33;54.78;97082.84;6221736;23;20023;-81
2022/05/13 12:31:00;;;;;;;6.05;3.22;;;;;;;20.38;53.59;97085.63;6221537;23;20052;-80
2022/05/13 12:33:38;;;;;;;9.13;3.08;;;;;;;20.42;53.03;97086.75;6220646;23;20815;-80
2022/05/13 12:39:19;;;;;;;8.38;4.45;;;;;;;20.53;51.89;97085.13;6222222;23;20052;-77
2022/05/13 12:41:55;;;;;;;7.82;3.80;;;;;;;20.51;54.55;97080.06;6222412;23;20021;-78
2022/05/13 12:44:33;;;;;;;12.20;3.90;;;;;;;20.49;53.54;97082.13;6223596;23;20023;-80
2022/05/13 12:47:26;;;;;;;6.40;3.30;;;;;;;20.51;53.81;97088.00;6220580;23;20103;-78
2022/05/13 12:50:00;;;;;;;8.32;3.60;;;;;;;20.53;52.55;97083.28;6216707;23;20028;-79
2022/05/13 12:52:40;;;;;;;5.93;2.88;;;;;;;20.56;54.35;97069.56;6220234;23;20024;-79
2022/05/13 12:55:18;;;;;;;6.28;3.30;;;;;;;20.62;54.72;97072.34;6219615;23;20019;-79
2022/05/13 12:57:49;;;;;;;10.63;3.20;;;;;;;20.69;53.11;97075.69;6219039;23;20039;-83
2022/05/13 13:00:24;;;;;;;7.00;2.75;;;;;;;20.73;52.70;97079.47;6223405;23;20016;-82
2022/05/13 13:02:55;;;;;;;3.60;2.78;;;;;;;20.73;50.41;97067.03;6227417;23;20032;-82
2022/05/13 13:05:27;;;;;;;6.45;2.55;;;;;;;20.77;50.84;97070.00;6227052;23;20021;-81
2022/05/13 13:07:56;;;;;;;6.40;2.35;;;;;;;20.82;51.11;97064.00;6224230;23;20353;-79
2022/05/13 13:10:24;;;;;;;6.80;3.47;;;;;;;20.87;50.95;97064.91;6225701;23;20032;-78
2022/05/13 13:13:03;;;;;;;6.75;2.97;;;;;;;20.92;52.68;97072.94;6228008;23;20059;-80
2022/05/13 13:15:37;;;;;;;5.40;2.80;;;;;;;20.96;49.35;97073.28;6228387;23;20107;-80
2022/05/13 13:18:08;;;;;;;13.50;5.47;;;;;;;20.98;51.48;97061.38;6233307;23;20024;-82
2022/05/13 13:20:49;;;;;;;8.13;3.47;;;;;;;20.99;49.69;97068.31;6237816;23;20015;-79
2022/05/13 13:23:18;;;;;;;19.95;8.13;;;;;;;20.98;51.90;97056.09;6228008;23;20051;-79
2022/05/13 13:25:49;;;;;;;13.68;6.65;;;;;;;20.96;49.11;97047.56;6229215;23;20052;-83
2022/05/13 13:28:25;;;;;;;25.23;15.20;;;;;;;20.98;50.84;97052.63;6228315;23;20044;-80
2022/05/13 13:30:57;;;;;;;15.18;9.73;;;;;;;21.02;51.94;97056.44;6227549;23;20096;-80
2022/05/13 13:33:26;;;;;;;10.68;5.25;;;;;;;21.05;52.38;97058.59;6227447;23;20060;-81
2022/05/13 13:36:04;;;;;;;7.93;2.88;;;;;;;21.05;52.39;97052.50;6225562;23;20551;-79
2022/05/13 13:38:31;;;;;;;4.80;3.08;;;;;;;21.05;49.79;97049.84;6225829;23;20027;-81
2022/05/13 13:40:59;;;;;;;5.00;2.75;;;;;;;21.09;51.98;97045.66;6225064;23;20051;-79
2022/05/13 13:43:29;;;;;;;3.95;2.65;;;;;;;21.14;54.51;97040.44;6225426;23;20499;-80
2022/05/13 13:46:05;;;;;;;11.15;3.45;;;;;;;21.15;51.44;97047.38;6223873;23;20108;-80
2022/05/13 13:48:37;;;;;;;5.63;2.53;;;;;;;21.16;52.04;97048.97;6224682;23;20027;-82
2022/05/13 13:51:06;;;;;;;3.10;2.17;;;;;;;21.20;51.89;97047.47;6225874;23;20067;-80
2022/05/13 13:53:38;;;;;;;5.35;2.90;;;;;;;21.24;52.01;97047.78;6225913;23;20053;-79
2022/05/13 13:56:08;;;;;;;14.00;3.38;;;;;;;21.25;51.32;97044.09;6224330;23;20087;-79
2022/05/13 13:58:53;;;;;;;8.40;2.83;;;;;;;21.25;50.79;97044.88;6224018;23;20021;-79
2022/05/13 14:01:25;;;;;;;5.90;2.60;;;;;;;21.27;50.08;97034.84;6225229;23;20072;-79
2022/05/13 14:04:08;;;;;;;8.02;3.20;;;;;;;21.28;49.82;97038.31;6223640;23;20028;-77
2022/05/13 14:06:38;;;;;;;4.97;2.35;;;;;;;21.27;48.80;97036.69;6222276;23;20051;-79
2022/05/13 14:09:06;;;;;;;7.07;2.10;;;;;;;21.27;49.79;97036.69;6223389;23;20032;-79
2022/05/13 14:11:36;;;;;;;6.03;2.63;;;;;;;21.28;49.57;97048.94;6238979;23;20015;-81
2022/05/13 14:14:25;;;;;;;3.53;2.03;;;;;;;21.30;50.99;97046.84;6239373;23;20076;-81
2022/05/13 14:16:58;;;;;;;40.53;25.30;;;;;;;21.30;51.56;97052.94;6234711;23;20024;-80
2022/05/13 14:19:29;;;;;;;23.05;15.00;;;;;;;21.30;47.26;97049.50;6226711;23;20099;-82
2022/05/13 14:21:59;;;;;;;4.18;2.50;;;;;;;21.28;47.69;97047.06;6230848;23;20072;-83
2022/05/13 14:24:32;;;;;;;5.95;3.38;;;;;;;21.29;48.96;97038.06;6229131;23;20092;-80
2022/05/13 14:27:08;;;;;;;6.88;2.38;;;;;;;21.30;46.82;97041.53;6225742;23;20095;-79
2022/05/13 14:29:36;;;;;;;4.80;2.30;;;;;;;21.32;50.44;97045.56;6225369;23;20080;-80
2022/05/13 14:32:08;;;;;;;3.90;1.83;;;;;;;21.33;47.09;97044.50;6226515;23;20364;-79
2022/05/13 14:34:37;;;;;;;6.18;2.08;;;;;;;21.35;49.93;97044.28;6226660;23;20040;-82
2022/05/13 14:37:08;;;;;;;3.25;2.25;;;;;;;21.32;49.18;97040.25;6225207;23;20048;-78
2022/05/13 14:39:52;;;;;;;7.60;2.58;;;;;;;21.30;47.92;97042.34;6225862;23;20023;-79
2022/05/13 14:42:26;;;;;;;4.60;2.40;;;;;;;21.30;50.28;97037.03;6226693;23;20084;-78
2022/05/13 14:44:56;;;;;;;6.50;2.38;;;;;;;21.30;49.37;97030.94;6226399;23;20104;-80
2022/05/13 14:47:35;;;;;;;24.70;18.75;;;;;;;21.30;48.93;97031.72;6225515;23;20024;-80
2022/05/13 14:50:16;;;;;;;10.35;4.60;;;;;;;21.31;49.83;97032.53;6226058;23;20060;-79
2022/05/13 14:52:46;;;;;;;4.75;3.67;;;;;;;21.29;48.54;97034.59;6226300;23;20100;-80
2022/05/13 14:55:22;;;;;;;10.50;2.90;;;;;;;21.28;51.44;97031.16;6223660;23;20020;-80
2022/05/13 14:57:51;;;;;;;6.07;2.40;;;;;;;21.30;52.92;97026.41;6223896;23;20547;-78
2022/05/13 15:00:21;;;;;;;3.13;2.20;;;;;;;21.30;51.12;97031.72;6225826;23;20091;-78
2022/05/13 15:03:00;;;;;;;2.65;2.05;;;;;;;21.31;52.69;97043.13;6223252;23;20024;-80
2022/05/13 15:05:36;;;;;;;6.22;2.13;;;;;;;21.29;51.80;97032.75;6224457;23;20099;-78
2022/05/13 15:08:35;;;;;;;6.43;2.10;;;;;;;21.30;50.26;97030.94;6222048;23;20052;-79
2022/05/13 15:11:03;;;;;;;5.45;2.72;;;;;;;21.30;49.95;97023.75;6223036;23;20024;-77
2022/05/13 15:13:33;;;;;;;4.55;2.53;;;;;;;21.31;50.76;97025.34;6224057;23;20024;-78
2022/05/13 15:16:01;;;;;;;3.80;2.40;;;;;;;21.33;48.74;97025.13;6221601;23;20453;-79
2022/05/13 15:18:35;;;;;;;4.95;1.92;;;;;;;21.35;50.34;97025.69;6221401;23;20020;-77
2022/05/13 15:21:04;;;;;;;4.07;1.98;;;;;;;21.37;48.78;97029.72;6220835;23;20377;-78
2022/05/13 15:23:34;;;;;;;4.15;2.13;;;;;;;21.35;47.99;97029.16;6222696;23;20091;-78
2022/05/13 15:26:03;;;;;;;1.92;1.55;;;;;;;21.32;47.16;97020.88;6221007;23;20095;-78
2022/05/13 15:28:31;;;;;;;4.80;2.05;;;;;;;21.31;45.93;97029.88;6221854;23;20025;-78
2022/05/13 15:30:59;;;;;;;2.50;1.80;;;;;;;21.31;48.11;97024.56;6221772;23;20104;-77
2022/05/13 15:33:27;;;;;;;3.03;1.98;;;;;;;21.33;51.90;97031.22;6221832;23;20338;-80
2022/05/13 15:35:56;;;;;;;2.83;1.80;;;;;;;21.36;52.42;97025.47;6221284;23;20091;-80
2022/05/13 15:38:24;;;;;;;3.38;2.00;;;;;;;21.36;48.59;97024.63;6224436;23;20028;-78
2022/05/13 15:40:51;;;;;;;4.43;2.20;;;;;;;21.36;50.34;97025.47;6223263;23;20044;-78
2022/05/13 15:43:19;;;;;;;4.07;1.83;;;;;;;21.33;47.82;97030.44;6222481;23;20032;-78
2022/05/13 15:45:53;;;;;;;4.22;1.77;;;;;;;21.34;48.30;97018.75;6220776;23;20095;-80
2022/05/13 15:48:21;;;;;;;4.20;1.83;;;;;;;21.33;46.22;97020.63;6223186;23;20028;-82
2022/05/13 15:53:35;;;;;;;16.45;9.57;;;;;;;21.36;45.58;97025.47;6223248;23;20021;-80
2022/05/13 15:56:17;;;;;;;6.75;2.55;;;;;;;21.34;46.82;97021.41;6222296;23;20048;-79
2022/05/13 15:58:45;;;;;;;4.13;2.80;;;;;;;21.32;45.52;97021.69;6223427;23;20049;-80
2022/05/13 16:01:33;;;;;;;5.68;2.08;;;;;;;21.29;43.89;97016.84;6222298;23;20030;-80
2022/05/13 16:04:00;;;;;;;2.30;1.40;;;;;;;21.30;45.68;97015.00;6221399;23;20032;-79
2022/05/13 16:06:28;;;;;;;4.63;1.83;;;;;;;21.26;45.66;97014.66;6220580;23;20023;-80
2022/05/13 16:08:57;;;;;;;3.13;1.20;;;;;;;21.22;45.92;97021.50;6221137;23;20024;-81
2022/05/13 16:11:29;;;;;;;7.07;1.90;;;;;;;21.19;47.64;97024.63;6222640;23;20091;-78
2022/05/13 16:13:57;;;;;;;;;;;;;;;21.20;47.78;97023.59;6222547;23;20048;-79
2022/05/13 16:16:27;;;;;;;4.07;1.80;;;;;;;21.17;44.93;97018.75;6221650;23;19922;-82
2022/05/13 16:18:56;;;;;;;3.72;1.40;;;;;;;21.17;44.62;97029.38;6228847;22;20005;-82
2022/05/13 16:21:29;;;;;;;4.72;1.80;;;;;;;21.16;44.74;97025.09;6238508;23;20021;-82
2022/05/13 16:23:59;;;;;;;3.00;1.17;;;;;;;21.15;47.17;97026.16;6232614;23;20036;-82
2022/05/13 16:26:31;;;;;;;6.18;1.88;;;;;;;21.14;44.98;97016.56;6226707;23;20099;-82
2022/05/13 16:28:58;;;;;;;5.00;2.03;;;;;;;21.16;46.98;97020.59;6226375;23;20021;-80
2022/05/13 16:31:28;;;;;;;3.45;1.52;;;;;;;21.18;46.40;97013.19;6226136;23;20016;-82
2022/05/13 16:33:57;;;;;;;5.03;1.30;;;;;;;21.20;47.52;97015.63;6225593;23;20048;-82
2022/05/13 16:36:26;;;;;;;2.92;1.83;;;;;;;21.17;43.95;97016.13;6225615;23;20020;-80
2022/05/13 16:38:54;;;;;;;4.40;1.35;;;;;;;21.17;44.37;97019.56;6225876;23;20027;-81
2022/05/13 16:41:24;;;;;;;2.45;1.40;;;;;;;21.14;42.83;97008.63;6224549;23;20038;-81
2022/05/13 16:43:51;;;;;;;2.60;1.35;;;;;;;21.14;42.93;97021.88;6222866;23;20027;-81
2022/05/13 16:46:19;;;;;;;4.78;1.38;;;;;;;21.15;44.62;97023.50;6221930;23;20016;-80
2022/05/13 16:48:47;;;;;;;2.35;1.40;;;;;;;21.13;44.14;97014.97;6220844;23;20020;-79
2022/05/13 16:51:14;;;;;;;3.20;1.20;;;;;;;21.12;45.35;97018.66;6222631;23;20095;-78
2022/05/13 16:53:43;;;;;;;2.85;1.10;;;;;;;21.12;47.22;97013.34;6221347;23;20048;-82
2022/05/13 16:56:10;;;;;;;3.45;1.42;;;;;;;21.11;47.33;97017.06;6221267;23;20029;-78
2022/05/13 16:58:40;;;;;;;8.82;4.68;;;;;;;21.09;43.80;97017.28;6221153;23;20017;-79
2022/05/13 17:01:08;;;;;;;13.98;5.30;;;;;;;21.06;46.67;97014.31;6221754;23;20385;-81
2022/05/13 17:03:35;;;;;;;56.35;35.67;;;;;;;21.06;45.92;97024.94;6222212;23;20397;-79
2022/05/13 17:06:03;;;;;;;7.10;2.60;;;;;;;21.04;43.60;97021.72;6221554;23;20179;-80
2022/05/13 17:16:12;;;;;;;6.47;1.80;;;;;;;21.02;42.59;97018.50;6220475;23;20115;-79
2022/05/13 17:16:52;;;;;;;2.42;1.35;;;;;;;20.97;42.43;97019.22;6219983;23;20048;-80
2022/05/13 17:19:26;;;;;;;2.05;0.85;;;;;;;20.96;42.22;97015.72;6221609;23;20111;-80
2022/05/13 17:21:55;;;;;;;3.75;1.20;;;;;;;20.96;43.14;97020.25;6222514;23;20020;-80
2022/05/13 17:24:29;;;;;;;4.40;1.23;;;;;;;20.94;42.73;97023.13;6223390;23;20029;-81
2022/05/13 17:27:00;;;;;;;1.98;1.38;;;;;;;20.92;44.00;97019.91;6224760;23;20025;-83
2022/05/13 17:29:30;;;;;;;1.63;1.10;;;;;;;20.92;42.02;97022.56;6223396;23;20040;-80
2022/05/13 17:31:58;;;;;;;3.40;0.85;;;;;;;20.90;44.24;97022.00;6223190;23;20019;-78
2022/05/13 17:34:26;;;;;;;2.25;0.95;;;;;;;20.91;46.01;97025.47;6223653;23;20035;-80
2022/05/13 17:36:58;;;;;;;5.32;1.00;;;;;;;20.91;44.97;97028.13;6222044;23;20107;-80
2022/05/13 17:39:26;;;;;;;3.03;1.00;;;;;;;20.90;43.40;97027.31;6223275;23;20023;-78
2022/05/13 17:41:54;;;;;;;2.63;0.90;;;;;;;20.90;46.19;97027.31;6222707;23;20072;-86
2022/05/13 17:44:23;;;;;;;2.42;1.20;;;;;;;20.88;45.57;97024.09;6221969;23;20017;-84
2022/05/13 17:46:52;;;;;;;2.28;1.00;;;;;;;20.89;45.55;97030.19;6221415;23;20484;-82
2022/05/13 17:49:19;;;;;;;3.67;1.20;;;;;;;20.87;46.86;97032.28;6222658;23;20059;-80
2022/05/13 17:51:47;;;;;;;1.90;1.23;;;;;;;20.85;47.11;97027.19;6221115;23;20037;-81
2022/05/13 17:54:15;;;;;;;3.05;1.00;;;;;;;20.84;44.75;97027.44;6221173;23;20023;-82
2022/05/13 17:56:42;;;;;;;2.55;1.15;;;;;;;20.83;46.48;97025.84;6219126;23;20072;-79
2022/05/13 17:59:10;;;;;;;2.38;1.00;;;;;;;20.81;47.18;97035.88;6219194;23;20020;-80
2022/05/13 18:01:38;;;;;;;3.33;1.00;;;;;;;20.79;42.58;97036.09;6220501;23;20470;-79
2022/05/13 18:04:07;;;;;;;3.47;0.80;;;;;;;20.74;40.37;97030.72;6271565;22;20031;-77
2022/05/13 18:06:35;;;;;;;2.72;0.70;;;;;;;20.74;45.42;97030.72;6286189;22;20051;-77
2022/05/13 18:09:03;;;;;;;1.95;1.00;;;;;;;20.76;46.95;97036.56;6290980;22;20011;-77
2022/05/13 18:11:31;;;;;;;3.15;1.10;;;;;;;20.73;46.35;97035.22;6288798;22;20490;-76
2022/05/13 18:14:02;;;;;;;4.13;1.27;;;;;;;20.71;46.51;97036.50;6255287;22;20113;-78
2022/05/13 18:16:31;;;;;;;2.63;0.85;;;;;;;20.68;43.97;97039.59;6263167;22;20030;-77
2022/05/13 18:18:58;;;;;;;35.47;27.83;;;;;;;20.65;46.28;97037.44;6281086;22;20066;-78
2022/05/13 18:21:28;;;;;;;59.15;44.55;;;;;;;20.67;49.56;97048.59;6288985;22;20016;-78